Flight Track Log - Related Links

Times and Time Zones

All times are in EDT time to prevent confusion due to time zone crossing. See the TCF3494 flight status page for this flight to view local times or setup timezone preferences in your user account.

Time Position Orientation Groundspeed Altitude Reporting Facility
EDT Latitude Longitude Course Direction KTS MPH feet Rate Location/Type
Fri 08:54:33 PM 41.9333 -87.9000 124° Southeast 175 201 2,200  Level Chicago TRACON
Fri 08:55:27 PM 41.9000 -87.8333 124° Southeast 228 262 3,800 1,513 Climbing Chicago TRACON
Fri 08:56:28 PM 41.8758 -87.7592 114° Southeast 247 284 5,100 2,390 Climbing Chicago Center
Fri 08:57:30 PM 41.9086 -87.6422 69° East 283 326 8,700 3,145 Climbing Chicago Center
Fri 08:58:32 PM 41.9383 -87.5461 67° East 280 322 11,600 2,613 Climbing Chicago Center
Fri 08:59:34 PM 41.9656 -87.4433 70° East 290 334 14,100 2,468 Climbing Chicago Center
Fri 09:00:36 PM 41.9600 -87.3231 94° East 315 362 16,700 2,371 Climbing Chicago Center
Fri 09:01:38 PM 41.9531 -87.2050 94° East 318 366 19,000 1,645 Climbing Chicago Center
Fri 09:02:40 PM 41.9472 -87.0806 94° East 329 379 20,100 1,403 Climbing Chicago Center
Fri 09:03:42 PM 41.9369 -86.9067 94° East 380 437 21,900 1,645 Climbing Chicago Center
Fri 09:04:44 PM 41.8983 -86.7600 109° East 410 472 23,500 1,645 Climbing Chicago Center
Fri 09:05:46 PM 41.8581 -86.6058 109° East 424 488 25,300 1,790 Climbing Chicago Center
Fri 09:06:48 PM 41.8197 -86.4564 109° East 425 489 27,200 1,488 Climbing Chicago Center
Fri 09:07:51 PM 41.8111 -86.3031 94° East 415 478 28,400 1,728 Climbing Chicago Center
Fri 09:08:53 PM 41.8064 -86.1567 92° East 399 459 30,800 1,839 Climbing Chicago Center
Fri 09:09:55 PM 41.8006 -86.0175 93° East 380 437 32,200 1,306 Climbing Chicago Center
Fri 09:10:57 PM 41.7942 -85.8475 93° East 380 437 33,500 1,161 Climbing Chicago Center
Fri 09:11:59 PM 41.7883 -85.7044 93° East 383 441 34,600 726 Climbing Chicago Center
Fri 09:13:01 PM 41.7842 -85.5650 92° East 377 434 35,000 194 Climbing Chicago Center
Fri 09:14:03 PM 41.7792 -85.4200 93° East 380 437 35,000  Level Chicago Center
Fri 09:15:05 PM 41.7711 -85.2650 94° East 403 464 35,000  Level Chicago Center
Fri 09:16:07 PM 41.7636 -85.1086 94° East 422 486 35,000  Level Chicago Center
Fri 09:17:09 PM 41.7558 -84.9569 94° East 415 478 35,000  Level Chicago Center
Fri 09:18:11 PM 41.7464 -84.8044 95° East 412 474 35,000  Level Chicago Center
Fri 09:19:14 PM 41.7372 -84.6253 94° East 405 466 35,000  Level Chicago Center
Fri 09:20:00 PM 41.7342 -84.5097 92° East 405 466 35,000  Level Cleveland Center
Fri 09:21:00 PM 41.7247 -84.3589 95° East 405 466 35,000  Level Cleveland Center
Fri 09:22:00 PM 41.7122 -84.2300 97° East 405 466 35,000  Level Cleveland Center
Fri 09:23:00 PM 41.7064 -84.0794 93° East 405 466 35,000  Level Cleveland Center
Fri 09:24:00 PM 41.6964 -83.9289 95° East 405 466 35,000  Level Cleveland Center
Fri 09:25:00 PM 41.6881 -83.7781 94° East 405 466 35,000  Level Cleveland Center
Fri 09:26:00 PM 41.6778 -83.6275 95° East 405 466 35,000  Level Cleveland Center
Fri 09:27:00 PM 41.6692 -83.4742 94° East 405 466 35,000  Level Cleveland Center
Fri 09:28:00 PM 41.6603 -83.3208 94° East 410 472 35,000  Level Cleveland Center
Fri 09:29:00 PM 41.6494 -83.1675 95° East 410 472 35,000  Level Cleveland Center
Fri 09:30:00 PM 41.6383 -83.0086 95° East 410 472 35,000  Level Cleveland Center
Fri 09:31:00 PM 41.6289 -82.8528 95° East 420 483 35,000  Level Cleveland Center
Fri 09:32:00 PM 41.6194 -82.6942 95° East 426 490 35,000  Level Cleveland Center
Fri 09:33:00 PM 41.6097 -82.5356 95° East 426 490 35,000  Level Cleveland Center
Fri 09:34:00 PM 41.5978 -82.3769 96° East 427 491 35,000  Level Cleveland Center
Fri 09:35:00 PM 41.5858 -82.2044 95° East 427 491 35,000  Level Cleveland Center
Fri 09:36:00 PM 41.5733 -82.0486 96° East 427 491 35,000  Level Cleveland Center
Fri 09:37:00 PM 41.5628 -81.8875 95° East 427 491 35,000  Level Cleveland Center
Fri 09:38:00 PM 41.5497 -81.7261 96° East 432 497 35,000  Level Cleveland Center
Fri 09:39:00 PM 41.5389 -81.5681 95° East 426 490 35,000  Level Cleveland Center
Fri 09:40:00 PM 41.5253 -81.4264 97° East 426 490 35,000  Level Cleveland Center
Fri 09:41:00 PM 41.5119 -81.2681 96° East 426 490 35,000  Level Cleveland Center
Fri 09:42:00 PM 41.5003 -81.1044 95° East 426 490 35,000  Level Cleveland Center
Fri 09:43:00 PM 41.4842 -80.9408 97° East 437 503 35,000  Level Cleveland Center
Fri 09:44:00 PM 41.4719 -80.7772 96° East 437 503 35,000  Level Cleveland Center
Fri 09:45:00 PM 41.4556 -80.5969 97° East 442 509 35,000  Level Cleveland Center
Fri 09:46:00 PM 41.4431 -80.4419 96° East 442 509 35,000  Level Cleveland Center
Fri 09:47:00 PM 41.4281 -80.2758 97° East 442 509 35,000  Level Cleveland Center
Fri 09:48:00 PM 41.4128 -80.1125 97° East 442 509 35,000  Level Cleveland Center
Fri 09:49:00 PM 41.3997 -79.9714 97° East 442 509 35,000  Level Cleveland Center
Fri 09:50:00 PM 41.3842 -79.8083 97° East 442 509 35,000  Level Cleveland Center
Fri 09:51:00 PM 41.3681 -79.6258 97° East 448 516 35,000 -200 Level Cleveland Center
Fri 09:52:00 PM 41.3519 -79.4600 97° East 448 516 34,600 -750 Descending Cleveland Center
Fri 09:53:00 PM 41.3356 -79.2917 97° East 448 516 33,500 -800 Descending Cleveland Center
Fri 09:54:00 PM 41.3194 -79.1456 98° East 448 516 33,000 -250 Descending Cleveland Center
Fri 09:55:00 PM 41.3047 -78.9800 97° East 448 516 33,000  Level Cleveland Center
Fri 09:56:00 PM 41.2853 -78.7925 98° East 448 516 33,000  Level Cleveland Center
Fri 09:57:00 PM 41.2700 -78.6244 97° East 448 516 33,000  Level Cleveland Center
Fri 09:58:53 PM 41.2369 -78.3314 98° East 439 505 33,000  Level New York Center
Fri 09:59:51 PM 41.2161 -78.1661 99° East 450 518 33,000  Level New York Center
Fri 10:00:51 PM 41.1969 -78.0014 99° East 450 518 33,000  Level New York Center
Fri 10:01:53 PM 41.1761 -77.8308 99° East 450 518 33,000 -151 Level New York Center
Fri 10:02:50 PM 41.1547 -77.6633 100° East 455 524 32,700 -1,017 Descending New York Center
Fri 10:03:51 PM 41.1267 -77.4950 102° East 455 524 31,000 -1,721 Descending New York Center
Fri 10:04:52 PM 41.0986 -77.3272 102° East 460 529 29,200 -1,770 Descending New York Center
Fri 10:05:53 PM 41.0725 -77.1594 102° East 460 529 27,400 -1,686 Descending New York Center
Fri 10:06:53 PM 41.0456 -76.9972 102° East 454 522 25,800 -1,613 Descending New York Center
Fri 10:07:52 PM 41.0183 -76.8406 103° East 448 516 24,200 -1,563 Descending New York Center
Fri 10:08:52 PM 40.9944 -76.6928 102° East 429 494 22,700 -1,488 Descending New York Center
Fri 10:09:53 PM 40.9686 -76.5450 103° East 412 474 21,200 -1,488 Descending New York Center
Fri 10:10:53 PM 40.9461 -76.4028 102° East 406 467 19,700 -1,576 Descending New York Center
Fri 10:11:51 PM 40.9236 -76.2608 102° East 399 459 18,100 -966 Descending New York Center
Fri 10:12:51 PM 40.8925 -76.1239 107° East 399 459 17,800 -1,140 Descending New York Center
Fri 10:13:52 PM 40.8553 -75.9756 108° East 388 447 15,800 -1,884 Descending New York Center
Fri 10:14:52 PM 40.8253 -75.8497 107° East 374 430 14,000 -1,412 Descending New York Center
Fri 10:15:51 PM 40.7953 -75.7242 107° East 368 423 13,000 -500 Descending New York Center
Fri 10:16:52 PM 40.7628 -75.6039 110° East 358 412 13,000  Level New York Center
Fri 10:17:53 PM 40.7339 -75.4953 109° East 353 406 13,000  Level New York Center
Fri 10:18:53 PM 40.6944 -75.3856 115° Southeast 347 399 13,000 -153 Level New York Center
Fri 10:19:51 PM 40.6589 -75.2767 113° Southeast 330 380 12,700 -712 Descending New York Center
Fri 10:20:51 PM 40.6214 -75.1647 114° Southeast 308 354 11,600 -1,050 Descending New York Center
Fri 10:21:51 PM 40.5933 -75.0811 114° Southeast 286 329 10,600 -843 Descending New York Center
Fri 10:22:52 PM 40.5575 -74.9750 114° Southeast 286 329 9,900 -295 Descending New York Center
Fri 10:23:53 PM 40.5258 -74.8692 111° Southeast 302 348 10,000 115 Climbing New York Center
Fri 10:24:36 PM 40.5000 -74.7833 112° Southeast 327 376 10,100 58 Climbing New York TRACON
Fri 10:25:36 PM 40.4667 -74.6833 114° Southeast 318 366 10,100 -200 Level New York TRACON
Fri 10:26:36 PM 40.4333 -74.5833 114° Southeast 287 330 9,700 -1,000 Descending New York TRACON
Fri 10:27:36 PM 40.4000 -74.4833 114° Southeast 275 316 8,100 -1,056 Descending New York TRACON
Fri 10:28:41 PM 40.4000 -74.3833 90° East 281 323 7,500 -480 Descending New York TRACON
Fri 10:29:41 PM 40.4333 -74.3000 62° Northeast 282 325 7,100 -198 Descending New York TRACON
Fri 10:30:42 PM 40.4833 -74.2000 57° Northeast 278 320 7,100 -446 Level New York TRACON
Fri 10:31:42 PM 40.5167 -74.1167 62° Northeast 274 315 6,200 -1,400 Descending New York TRACON
Fri 10:32:42 PM 40.5667 -74.0500 45° Northeast 272 313 4,300 -1,550 Descending New York TRACON
Fri 10:33:42 PM 40.6167 -74.0167 27° Northeast 182 209 3,100 -800 Descending New York TRACON
Fri 10:34:42 PM 40.6500 -73.9833 37° Northeast 157 181 2,700 -632 Descending New York TRACON
Fri 10:35:36 PM 40.6833 -73.9500 37° Northeast 150 173 1,900 -889 Descending New York TRACON

Login

Don't have an account? Register now (free) for customized features, flight alerts, and more!